Terminal Aerodrome Forecast
Issued by NWS

Home | Current Version | Previous Version | Text Only | Print | Product List | Glossary On
Versions: 1 2 3 4 5 6 7 8 9 10 11 12 13 14 15 16 17 18
000
FTUS45 KLKN 062321
TAFTPH
TAF
KTPH 062321Z 0700/0724 18012G22KT P6SM VCTS OVC050CB
      TEMPO 0700/0703 -SHRA SCT020 OVC035
     FM070300 14008KT P6SM VCSH BKN070=

USA.gov is the U.S. government's official web portal to all federal, state and local government web resources and services.